Time;durP1;ratioP1;P1;durP2;ratioP2;P2;SDS_P1;SDS_P2;PMS_P1;PMS_P2;Temp;Humidity;BMP_temperature;BMP_pressure;BME280_temperature;BME280_humidity;BME280_pressure;Samples;Min_cycle;Max_cycle;Signal;HPM_P1;HPM_P2
2022/10/18 00:13:45;;;;;;;12.10;3.70;;;;;;;;;;5112519;27;20766;-70
2022/10/18 00:16:14;;;;;;;9.70;2.50;;;;;;;;;;5056074;28;20040;-71
2022/10/18 00:18:41;;;;;;;11.13;2.60;;;;;;;;;;5069649;28;20035;-70
2022/10/18 00:21:13;;;;;;;15.55;2.65;;;;;;;;;;5069798;28;20055;-70
2022/10/18 00:23:40;;;;;;;6.15;2.22;;;;;;;;;;5069911;27;20039;-70
2022/10/18 00:26:10;;;;;;;7.93;2.33;;;;;;;;;;5069640;28;20087;-70
2022/10/18 00:28:37;;;;;;;10.30;2.40;;;;;;;;;;5069056;27;20035;-70
2022/10/18 00:31:18;;;;;;;12.43;2.95;;;;;;;;;;5084552;27;20045;-70
2022/10/18 00:33:45;;;;;;;12.70;2.20;;;;;;;;;;5071693;27;20205;-71
2022/10/18 00:36:13;;;;;;;13.02;2.30;;;;;;;;;;5071589;28;20612;-70
2022/10/18 00:38:40;;;;;;;13.00;2.45;;;;;;;;;;5070786;27;20040;-69
2022/10/18 00:41:08;;;;;;;17.50;2.30;;;;;;;;;;5076414;28;20036;-71
2022/10/18 00:43:51;;;;;;;13.88;2.47;;;;;;;;;;5069166;28;20132;-70
2022/10/18 00:46:17;;;;;;;;;;;;;;;;;;5070364;27;20151;-70
2022/10/18 00:48:44;;;;;;;21.80;3.13;;;;;;;;;;5069386;27;19913;-70
2022/10/18 00:51:11;;;;;;;12.65;2.75;;;;;;;;;;5083738;28;20029;-70
2022/10/18 00:53:38;;;;;;;22.13;3.10;;;;;;;;;;5067583;28;20957;-69
2022/10/18 00:56:05;;;;;;;16.38;2.58;;;;;;;;;;5068724;27;20037;-70
2022/10/18 00:58:32;;;;;;;23.58;3.20;;;;;;;;;;5066929;27;20473;-70
2022/10/18 01:00:58;;;;;;;18.98;2.72;;;;;;;;;;5070230;27;20039;-69
2022/10/18 01:03:25;;;;;;;15.48;2.15;;;;;;;;;;5068231;27;20432;-70
2022/10/18 01:05:51;;;;;;;12.80;2.53;;;;;;;;;;5068458;27;20098;-71
2022/10/18 01:08:18;;;;;;;7.65;2.47;;;;;;;;;;5068578;28;20043;-70
2022/10/18 01:10:44;;;;;;;13.82;2.90;;;;;;;;;;5068501;27;20041;-70
2022/10/18 01:13:20;;;;;;;13.30;2.58;;;;;;;;;;5067273;28;20048;-71
2022/10/18 01:15:51;;;;;;;14.48;2.92;;;;;;;;;;5068686;27;20436;-70
2022/10/18 01:18:25;;;;;;;13.38;3.00;;;;;;;;;;5070673;27;20081;-69
2022/10/18 01:21:01;;;;;;;20.08;3.53;;;;;;;;;;5069103;27;20082;-70
2022/10/18 01:23:28;;;;;;;17.15;3.22;;;;;;;;;;5062740;27;20827;-70
2022/10/18 01:26:15;;;;;;;18.17;3.15;;;;;;;;;;5052957;28;20036;-70
2022/10/18 01:28:51;;;;;;;10.88;2.42;;;;;;;;;;5068437;28;20501;-68
2022/10/18 01:31:30;;;;;;;16.37;3.47;;;;;;;;;;5049749;28;20033;-71
2022/10/18 01:34:01;;;;;;;24.15;3.65;;;;;;;;;;5050123;28;20462;-70
2022/10/18 01:36:35;;;;;;;16.50;3.33;;;;;;;;;;5053617;28;20040;-70
2022/10/18 01:39:05;;;;;;;17.88;2.90;;;;;;;;;;5052066;28;21234;-70
2022/10/18 01:41:32;;;;;;;16.67;2.53;;;;;;;;;;5055827;28;20212;-70
2022/10/18 01:44:00;;;;;;;20.25;3.03;;;;;;;;;;5088344;27;20118;-70
2022/10/18 01:46:28;;;;;;;13.85;2.60;;;;;;;;;;5054118;27;20041;-70
2022/10/18 01:48:56;;;;;;;17.23;3.50;;;;;;;;;;5088664;27;20084;-71
2022/10/18 01:51:26;;;;;;;24.33;3.10;;;;;;;;;;5053947;28;20041;-71
2022/10/18 01:53:53;;;;;;;24.02;3.08;;;;;;;;;;5054837;28;20047;-71
2022/10/18 01:56:46;;;;;;;26.70;3.30;;;;;;;;;;5053152;28;20099;-71
2022/10/18 01:59:34;;;;;;;17.80;3.30;;;;;;;;;;5074918;27;20141;-70
2022/10/18 02:02:07;;;;;;;18.45;3.65;;;;;;;;;;5070552;27;20047;-71
2022/10/18 02:04:43;;;;;;;28.83;3.92;;;;;;;;;;5066198;27;20138;-71
2022/10/18 02:07:29;;;;;;;19.52;3.80;;;;;;;;;;5055766;28;20044;-71
2022/10/18 02:10:08;;;;;;;18.83;4.10;;;;;;;;;;5013470;27;20107;-71
2022/10/18 02:12:39;;;;;;;33.92;4.55;;;;;;;;;;5055581;28;20071;-70
2022/10/18 02:15:08;;;;;;;23.88;4.07;;;;;;;;;;5054132;28;20405;-68
2022/10/18 02:17:35;;;;;;;22.98;4.15;;;;;;;;;;5053228;28;20065;-69
2022/10/18 02:20:02;;;;;;;28.02;4.30;;;;;;;;;;5055475;28;20054;-69
2022/10/18 02:22:31;;;;;;;24.88;3.70;;;;;;;;;;5062989;28;20070;-70
2022/10/18 02:24:59;;;;;;;25.45;3.60;;;;;;;;;;5052754;28;20054;-69
2022/10/18 02:27:29;;;;;;;33.38;4.57;;;;;;;;;;5060902;27;20470;-70
2022/10/18 02:29:56;;;;;;;31.48;4.88;;;;;;;;;;5069111;27;20239;-71
2022/10/18 02:32:38;;;;;;;28.45;4.97;;;;;;;;;;5051480;28;20083;-71
2022/10/18 02:35:09;;;;;;;22.67;4.80;;;;;;;;;;5052237;28;20544;-73
2022/10/18 02:37:37;;;;;;;19.95;5.20;;;;;;;;;;5054591;28;20051;-71
2022/10/18 02:40:06;;;;;;;24.00;5.78;;;;;;;;;;5056133;28;20262;-72
2022/10/18 02:42:43;;;;;;;23.48;6.65;;;;;;;;;;5053298;28;20101;-68
2022/10/18 02:45:17;;;;;;;32.40;6.25;;;;;;;;;;5055969;28;20033;-72
2022/10/18 02:47:44;;;;;;;15.90;5.07;;;;;;;;;;5079680;27;20079;-70
2022/10/18 02:50:14;;;;;;;16.95;5.10;;;;;;;;;;5056448;27;20044;-71
2022/10/18 02:52:41;;;;;;;23.85;4.80;;;;;;;;;;5072613;27;20539;-72
2022/10/18 02:55:08;;;;;;;19.40;4.85;;;;;;;;;;5054124;28;20100;-70
2022/10/18 02:57:35;;;;;;;21.60;5.15;;;;;;;;;;5054339;28;20128;-69
2022/10/18 03:00:02;;;;;;;31.17;5.32;;;;;;;;;;5086252;27;20041;-72
2022/10/18 03:02:28;;;;;;;19.70;4.50;;;;;;;;;;5052593;28;20064;-70
2022/10/18 03:04:55;;;;;;;17.58;4.63;;;;;;;;;;5063258;28;20047;-70
2022/10/18 03:07:22;;;;;;;19.45;4.68;;;;;;;;;;5053914;28;20052;-71
2022/10/18 03:09:48;;;;;;;19.63;4.38;;;;;;;;;;5085756;27;20382;-70
2022/10/18 03:12:15;;;;;;;16.42;5.03;;;;;;;;;;5053996;28;20059;-70
2022/10/18 03:14:42;;;;;;;27.77;4.68;;;;;;;;;;5054774;28;20656;-69
2022/10/18 03:17:11;;;;;;;28.52;5.20;;;;;;;;;;5054791;28;20097;-71
2022/10/18 03:19:37;;;;;;;28.60;4.72;;;;;;;;;;5053249;28;20390;-71
2022/10/18 03:22:04;;;;;;;17.27;5.00;;;;;;;;;;5052847;28;20047;-69
2022/10/18 03:24:31;;;;;;;13.98;4.57;;;;;;;;;;5082728;27;20378;-72
2022/10/18 03:26:58;;;;;;;25.27;4.97;;;;;;;;;;5054398;28;20051;-71
2022/10/18 03:29:24;;;;;;;16.65;5.57;;;;;;;;;;5053989;28;20102;-69
2022/10/18 03:31:51;;;;;;;27.52;8.43;;;;;;;;;;5052752;28;20405;-70
2022/10/18 03:34:17;;;;;;;18.23;5.45;;;;;;;;;;5053505;28;20055;-72
2022/10/18 03:36:44;;;;;;;19.08;5.10;;;;;;;;;;5052014;28;20168;-70
2022/10/18 03:39:11;;;;;;;20.80;5.00;;;;;;;;;;5055741;28;20044;-71
2022/10/18 03:41:38;;;;;;;19.88;6.32;;;;;;;;;;5084399;27;20045;-70
2022/10/18 03:44:04;;;;;;;19.40;5.10;;;;;;;;;;5053185;28;20102;-69
2022/10/18 03:46:31;;;;;;;18.52;5.43;;;;;;;;;;5054473;28;20156;-70
2022/10/18 03:48:57;;;;;;;25.85;5.50;;;;;;;;;;5054304;28;20047;-71
2022/10/18 03:51:24;;;;;;;24.38;5.43;;;;;;;;;;5051010;28;20119;-70
2022/10/18 03:53:51;;;;;;;22.35;5.28;;;;;;;;;;5054989;28;20040;-69
2022/10/18 03:56:17;;;;;;;21.77;5.80;;;;;;;;;;5053751;28;20090;-71
2022/10/18 03:58:44;;;;;;;31.10;6.57;;;;;;;;;;5051839;28;20046;-71
2022/10/18 04:01:10;;;;;;;27.63;6.50;;;;;;;;;;5053381;28;20063;-71
2022/10/18 04:03:37;;;;;;;21.58;5.38;;;;;;;;;;5053088;28;20043;-71
2022/10/18 04:06:04;;;;;;;20.48;5.75;;;;;;;;;;5051428;28;20578;-71
2022/10/18 04:08:30;;;;;;;28.65;6.43;;;;;;;;;;5053830;28;20045;-71
2022/10/18 04:10:57;;;;;;;19.55;5.90;;;;;;;;;;5053218;28;20040;-71
2022/10/18 04:13:23;;;;;;;19.52;6.40;;;;;;;;;;5084839;28;20053;-71
2022/10/18 04:15:50;;;;;;;30.50;6.40;;;;;;;;;;5055142;28;20091;-70
2022/10/18 04:18:17;;;;;;;24.45;6.20;;;;;;;;;;5057363;28;20044;-70
2022/10/18 04:20:43;;;;;;;25.80;6.30;;;;;;;;;;5054635;28;20505;-70
2022/10/18 04:23:10;;;;;;;21.83;6.00;;;;;;;;;;5053322;28;20122;-70
2022/10/18 04:25:36;;;;;;;25.58;5.95;;;;;;;;;;5052417;28;20036;-69
2022/10/18 04:28:03;;;;;;;31.25;7.00;;;;;;;;;;5051570;28;20045;-70
2022/10/18 04:30:30;;;;;;;36.25;5.85;;;;;;;;;;5052455;28;20119;-72
2022/10/18 04:32:56;;;;;;;22.25;5.68;;;;;;;;;;5052839;28;20129;-68
2022/10/18 04:35:24;;;;;;;20.92;5.70;;;;;;;;;;5053388;28;20036;-69
2022/10/18 04:37:51;;;;;;;18.40;5.55;;;;;;;;;;5055783;28;20045;-68
2022/10/18 04:40:18;;;;;;;22.67;5.32;;;;;;;;;;5051815;28;20417;-70
2022/10/18 04:42:45;;;;;;;18.02;4.78;;;;;;;;;;5051382;28;20048;-71
2022/10/18 04:45:12;;;;;;;16.92;4.63;;;;;;;;;;5051913;28;20048;-73
2022/10/18 04:47:38;;;;;;;17.77;5.03;;;;;;;;;;5054456;28;20515;-69
2022/10/18 04:50:05;;;;;;;27.05;5.38;;;;;;;;;;5053217;28;20120;-70
2022/10/18 04:52:32;;;;;;;20.45;5.32;;;;;;;;;;5052815;28;20040;-71
2022/10/18 04:54:58;;;;;;;19.23;4.80;;;;;;;;;;5055846;28;20033;-72
2022/10/18 04:57:25;;;;;;;18.55;5.20;;;;;;;;;;5051439;28;20067;-71
2022/10/18 04:59:52;;;;;;;30.05;6.05;;;;;;;;;;5062069;28;20048;-71
2022/10/18 05:02:18;;;;;;;23.50;5.63;;;;;;;;;;5090386;27;20071;-70
2022/10/18 05:04:45;;;;;;;19.50;5.50;;;;;;;;;;5088491;27;20040;-70
2022/10/18 05:07:11;;;;;;;18.02;5.05;;;;;;;;;;5057429;28;20730;-72
2022/10/18 05:09:38;;;;;;;20.38;5.20;;;;;;;;;;5063661;28;20048;-70
2022/10/18 05:12:05;;;;;;;20.55;4.75;;;;;;;;;;5056273;28;20413;-69
2022/10/18 05:14:31;;;;;;;19.15;4.80;;;;;;;;;;5053399;28;20048;-70
2022/10/18 05:16:58;;;;;;;22.40;5.30;;;;;;;;;;5064778;28;20493;-71
2022/10/18 05:19:24;;;;;;;26.70;5.47;;;;;;;;;;5054705;28;20101;-70
2022/10/18 05:21:51;;;;;;;17.98;4.90;;;;;;;;;;5055933;28;20047;-70
2022/10/18 05:24:18;;;;;;;21.83;4.70;;;;;;;;;;5058196;28;20060;-71
2022/10/18 05:26:44;;;;;;;19.63;5.15;;;;;;;;;;5055738;28;20101;-69
2022/10/18 05:29:11;;;;;;;24.75;5.00;;;;;;;;;;5056721;28;20529;-70
2022/10/18 05:31:37;;;;;;;14.02;4.55;;;;;;;;;;5055849;28;20159;-69
2022/10/18 05:34:04;;;;;;;15.88;3.97;;;;;;;;;;5058044;28;20040;-70
2022/10/18 05:36:30;;;;;;;19.25;4.80;;;;;;;;;;5056620;28;20198;-70
2022/10/18 05:38:57;;;;;;;22.75;4.57;;;;;;;;;;5056116;28;20044;-69
2022/10/18 05:41:24;;;;;;;11.73;4.25;;;;;;;;;;5055288;28;20077;-70
2022/10/18 05:43:50;;;;;;;16.60;4.10;;;;;;;;;;5057723;28;20028;-69
2022/10/18 05:46:17;;;;;;;17.70;4.30;;;;;;;;;;5055410;28;20043;-68
2022/10/18 05:48:44;;;;;;;15.52;4.35;;;;;;;;;;5054256;28;20539;-69
2022/10/18 05:51:11;;;;;;;22.17;4.32;;;;;;;;;;5057443;28;20128;-69
2022/10/18 05:53:38;;;;;;;17.40;4.38;;;;;;;;;;5055712;28;20043;-70
2022/10/18 05:56:05;;;;;;;14.82;4.43;;;;;;;;;;5054252;28;20148;-71
2022/10/18 05:58:31;;;;;;;19.38;4.10;;;;;;;;;;5057850;28;20096;-70
2022/10/18 06:01:02;;;;;;;14.90;4.20;;;;;;;;;;5054293;28;20040;-70
2022/10/18 06:03:29;;;;;;;17.42;4.00;;;;;;;;;;5087649;27;20746;-70
2022/10/18 06:06:03;;;;;;;29.40;4.50;;;;;;;;;;5057614;28;20398;-70
2022/10/18 06:08:30;;;;;;;17.67;4.20;;;;;;;;;;5063599;28;21779;-69
2022/10/18 06:10:56;;;;;;;19.38;3.88;;;;;;;;;;5054764;28;20040;-70
2022/10/18 06:13:23;;;;;;;19.85;4.25;;;;;;;;;;5054543;28;20175;-70
2022/10/18 06:15:50;;;;;;;17.92;4.25;;;;;;;;;;5056137;28;20029;-71
2022/10/18 06:18:17;;;;;;;19.33;4.30;;;;;;;;;;5055977;28;20440;-70
2022/10/18 06:20:43;;;;;;;14.43;4.15;;;;;;;;;;5053425;28;20477;-70
2022/10/18 06:23:10;;;;;;;12.15;3.05;;;;;;;;;;5056045;28;20056;-70
2022/10/18 06:25:37;;;;;;;20.98;4.07;;;;;;;;;;5055177;28;20067;-70
2022/10/18 06:28:06;;;;;;;22.58;4.30;;;;;;;;;;5086980;27;20036;-70
2022/10/18 06:30:33;;;;;;;14.18;3.45;;;;;;;;;;5085124;27;20172;-70
2022/10/18 06:33:00;;;;;;;12.95;4.15;;;;;;;;;;5056201;28;20044;-71
2022/10/18 06:35:27;;;;;;;15.90;3.10;;;;;;;;;;5054348;28;20028;-70
2022/10/18 06:37:53;;;;;;;11.60;2.92;;;;;;;;;;5054219;28;20510;-71
2022/10/18 06:40:20;;;;;;;8.50;2.90;;;;;;;;;;5053547;28;20090;-71
2022/10/18 06:42:47;;;;;;;12.43;2.47;;;;;;;;;;5056330;28;20064;-68
2022/10/18 06:45:14;;;;;;;8.50;2.63;;;;;;;;;;5054893;28;21663;-69
2022/10/18 06:47:41;;;;;;;7.30;2.60;;;;;;;;;;5052788;28;20048;-68
2022/10/18 06:50:08;;;;;;;8.35;2.20;;;;;;;;;;5053814;28;20041;-68
2022/10/18 06:52:35;;;;;;;13.75;2.45;;;;;;;;;;5054253;28;20041;-68
2022/10/18 06:55:01;;;;;;;8.23;2.35;;;;;;;;;;5055868;28;20036;-68
2022/10/18 06:57:28;;;;;;;12.73;2.38;;;;;;;;;;5054270;28;20178;-68
2022/10/18 06:59:55;;;;;;;7.32;2.17;;;;;;;;;;5052954;28;20133;-69
2022/10/18 07:02:21;;;;;;;10.85;2.33;;;;;;;;;;5051144;28;20040;-69
2022/10/18 07:04:48;;;;;;;9.07;2.28;;;;;;;;;;5055224;28;21021;-69
2022/10/18 07:07:15;;;;;;;9.60;2.50;;;;;;;;;;5054623;28;20126;-70
2022/10/18 07:09:42;;;;;;;6.82;1.80;;;;;;;;;;5054137;28;20036;-70
2022/10/18 07:12:10;;;;;;;7.65;2.08;;;;;;;;;;5055355;28;20083;-69
2022/10/18 07:14:37;;;;;;;13.35;2.33;;;;;;;;;;5054597;28;20036;-69
2022/10/18 07:17:04;;;;;;;5.82;2.17;;;;;;;;;;5053694;28;20074;-69
2022/10/18 07:19:30;;;;;;;7.35;1.98;;;;;;;;;;5050865;28;20097;-68
2022/10/18 07:21:57;;;;;;;4.82;1.80;;;;;;;;;;5055917;28;20039;-69
2022/10/18 07:24:24;;;;;;;5.45;2.28;;;;;;;;;;5054113;28;20449;-70
2022/10/18 07:26:51;;;;;;;4.65;1.90;;;;;;;;;;5054274;28;20079;-70
2022/10/18 07:29:17;;;;;;;8.77;1.90;;;;;;;;;;5054831;28;20071;-70
2022/10/18 07:31:44;;;;;;;8.30;2.15;;;;;;;;;;5055655;28;20102;-70
2022/10/18 07:34:12;;;;;;;6.70;2.15;;;;;;;;;;5054526;28;20080;-70
2022/10/18 07:36:38;;;;;;;9.15;2.00;;;;;;;;;;5053060;28;20039;-69
2022/10/18 07:39:05;;;;;;;6.00;2.10;;;;;;;;;;5054143;28;20055;-70
2022/10/18 07:41:32;;;;;;;4.88;1.80;;;;;;;;;;5049561;28;20032;-70
2022/10/18 07:44:00;;;;;;;7.00;2.05;;;;;;;;;;5056190;28;20045;-70
2022/10/18 07:46:26;;;;;;;7.43;1.75;;;;;;;;;;5053339;28;20029;-69
2022/10/18 07:48:53;;;;;;;9.10;2.00;;;;;;;;;;5054922;28;20577;-70
2022/10/18 07:51:20;;;;;;;4.95;2.08;;;;;;;;;;5054663;28;20033;-70
2022/10/18 07:53:47;;;;;;;5.60;1.98;;;;;;;;;;5056490;28;20052;-70
2022/10/18 07:56:15;;;;;;;4.38;1.65;;;;;;;;;;5085394;27;20043;-69
2022/10/18 07:58:45;;;;;;;3.53;1.70;;;;;;;;;;5052510;28;20044;-69
2022/10/18 08:01:12;;;;;;;4.85;1.90;;;;;;;;;;5052771;28;20052;-69
2022/10/18 08:03:39;;;;;;;4.30;1.80;;;;;;;;;;5052653;28;20047;-69
2022/10/18 08:06:08;;;;;;;4.03;1.88;;;;;;;;;;5051714;28;20035;-69
2022/10/18 08:08:35;;;;;;;5.22;2.10;;;;;;;;;;5053521;28;20068;-68
2022/10/18 08:11:07;;;;;;;4.75;2.20;;;;;;;;;;5054025;28;20606;-68
2022/10/18 08:13:33;;;;;;;4.63;2.05;;;;;;;;;;5052808;28;20048;-69
2022/10/18 08:16:04;;;;;;;7.68;2.17;;;;;;;;;;5054229;28;20166;-69
2022/10/18 08:18:31;;;;;;;7.18;2.22;;;;;;;;;;5052635;28;20044;-69
2022/10/18 08:20:59;;;;;;;4.10;1.73;;;;;;;;;;5051633;28;20045;-69
2022/10/18 08:23:26;;;;;;;4.80;1.63;;;;;;;;;;5053502;28;20515;-68
2022/10/18 08:25:52;;;;;;;4.88;1.80;;;;;;;;;;5053849;28;20094;-69
2022/10/18 08:28:19;;;;;;;4.47;1.88;;;;;;;;;;5051406;28;20048;-69
2022/10/18 08:30:46;;;;;;;6.28;1.50;;;;;;;;;;5050118;28;20090;-69
2022/10/18 08:33:12;;;;;;;4.63;1.63;;;;;;;;;;5055510;28;20076;-69
2022/10/18 08:35:39;;;;;;;5.80;1.88;;;;;;;;;;5058127;28;20154;-68
2022/10/18 08:38:10;;;;;;;6.57;1.80;;;;;;;;;;5056117;28;20456;-69
2022/10/18 08:40:42;;;;;;;4.82;1.85;;;;;;;;;;5055890;28;20170;-71
2022/10/18 08:43:16;;;;;;;4.47;1.83;;;;;;;;;;5089351;27;20036;-70
2022/10/18 08:45:43;;;;;;;5.15;1.83;;;;;;;;;;5055106;28;20111;-70
2022/10/18 08:48:20;;;;;;;6.55;2.00;;;;;;;;;;5055465;28;20064;-70
2022/10/18 08:50:48;;;;;;;5.57;1.60;;;;;;;;;;5053803;28;20064;-70
2022/10/18 08:53:20;;;;;;;4.20;1.63;;;;;;;;;;5057150;28;20151;-69
2022/10/18 08:56:20;;;;;;;3.90;1.70;;;;;;;;;;5051082;28;20409;-70
2022/10/18 08:58:47;;;;;;;3.72;1.75;;;;;;;;;;5056741;28;20075;-71
2022/10/18 09:01:16;;;;;;;3.55;1.67;;;;;;;;;;5055000;28;20536;-70
2022/10/18 09:04:01;;;;;;;3.83;1.70;;;;;;;;;;5056087;28;20037;-69
2022/10/18 09:06:30;;;;;;;6.47;1.70;;;;;;;;;;5054177;28;20044;-70
2022/10/18 09:09:15;;;;;;;5.15;1.90;;;;;;;;;;5057496;28;20053;-70
2022/10/18 09:12:00;;;;;;;4.57;1.70;;;;;;;;;;5055393;28;20045;-70
2022/10/18 09:14:39;;;;;;;4.22;1.67;;;;;;;;;;5057111;28;20191;-71
2022/10/18 09:17:14;;;;;;;6.13;1.67;;;;;;;;;;5088334;27;20039;-71
2022/10/18 09:19:59;;;;;;;3.30;1.50;;;;;;;;;;5055082;28;20070;-72
2022/10/18 09:22:38;;;;;;;4.63;1.88;;;;;;;;;;5055856;28;20047;-69
2022/10/18 09:25:21;;;;;;;5.40;1.90;;;;;;;;;;5058103;28;20040;-69
2022/10/18 09:27:52;;;;;;;4.07;1.73;;;;;;;;;;5056577;28;20056;-70
2022/10/18 09:30:25;;;;;;;4.65;1.80;;;;;;;;;;5059850;28;20052;-70
2022/10/18 09:32:57;;;;;;;4.93;1.73;;;;;;;;;;5088351;27;20055;-69
2022/10/18 09:35:25;;;;;;;5.82;1.70;;;;;;;;;;5089589;27;20037;-69
2022/10/18 09:37:54;;;;;;;4.18;1.75;;;;;;;;;;5056336;28;20541;-69
2022/10/18 09:40:24;;;;;;;3.63;1.60;;;;;;;;;;5057207;28;20050;-70
2022/10/18 09:43:01;;;;;;;5.13;2.13;;;;;;;;;;5056680;28;20048;-70
2022/10/18 09:45:30;;;;;;;4.15;1.65;;;;;;;;;;5069973;28;20074;-70
2022/10/18 09:48:03;;;;;;;4.82;1.80;;;;;;;;;;5056304;28;20037;-70
2022/10/18 09:50:32;;;;;;;3.47;1.70;;;;;;;;;;5052626;28;20037;-70
2022/10/18 09:53:08;;;;;;;6.38;2.15;;;;;;;;;;5054277;28;20060;-70
2022/10/18 09:55:55;;;;;;;6.53;1.95;;;;;;;;;;5055152;28;20044;-69
2022/10/18 09:58:23;;;;;;;3.63;1.52;;;;;;;;;;5047011;28;20185;-70
2022/10/18 10:00:51;;;;;;;7.97;1.92;;;;;;;;;;5056220;28;20036;-71
2022/10/18 10:03:17;;;;;;;4.75;1.90;;;;;;;;;;5056238;28;20839;-69
2022/10/18 10:05:44;;;;;;;4.75;1.90;;;;;;;;;;5054988;28;20040;-69
2022/10/18 10:08:11;;;;;;;5.80;2.10;;;;;;;;;;5055891;28;20059;-68
2022/10/18 10:10:39;;;;;;;3.97;1.77;;;;;;;;;;5053064;28;20071;-68
2022/10/18 10:13:14;;;;;;;5.15;1.63;;;;;;;;;;5056083;28;20056;-70
2022/10/18 10:15:45;;;;;;;4.95;2.10;;;;;;;;;;5053410;28;20508;-69
2022/10/18 10:18:35;;;;;;;4.75;1.65;;;;;;;;;;5054873;28;20554;-70
2022/10/18 10:21:04;;;;;;;4.50;1.90;;;;;;;;;;5043628;28;20083;-69
2022/10/18 10:23:31;;;;;;;6.15;1.67;;;;;;;;;;5054541;28;20136;-68
2022/10/18 10:26:04;;;;;;;7.25;2.13;;;;;;;;;;5055940;28;20044;-68
2022/10/18 10:28:33;;;;;;;5.72;1.77;;;;;;;;;;5054416;28;20074;-68
2022/10/18 10:31:18;;;;;;;5.20;1.90;;;;;;;;;;5055246;28;20045;-70
2022/10/18 10:33:46;;;;;;;5.53;1.80;;;;;;;;;;5053483;28;20037;-70
2022/10/18 10:36:20;;;;;;;6.18;1.70;;;;;;;;;;5056979;28;20925;-70
2022/10/18 10:39:02;;;;;;;4.50;1.40;;;;;;;;;;5054306;28;20098;-70
2022/10/18 10:41:29;;;;;;;4.15;1.88;;;;;;;;;;5056473;28;20045;-69
2022/10/18 10:43:56;;;;;;;5.07;1.90;;;;;;;;;;5058212;28;20448;-69
2022/10/18 10:46:25;;;;;;;6.45;1.80;;;;;;;;;;5056437;28;20093;-70
2022/10/18 10:48:53;;;;;;;5.75;1.88;;;;;;;;;;5056084;28;20043;-69
2022/10/18 10:51:31;;;;;;;4.78;1.80;;;;;;;;;;5055705;28;20036;-71
2022/10/18 10:54:13;;;;;;;4.93;2.00;;;;;;;;;;5087565;27;20055;-69
2022/10/18 10:57:16;;;;;;;4.15;1.98;;;;;;;;;;5052197;28;20033;-70
2022/10/18 10:59:48;;;;;;;6.65;2.40;;;;;;;;;;4968909;28;20057;-69
2022/10/18 11:02:17;;;;;;;7.43;1.90;;;;;;;;;;5040821;28;20420;-69
2022/10/18 11:04:45;;;;;;;7.88;2.20;;;;;;;;;;5052054;28;20025;-70
2022/10/18 11:07:18;;;;;;;4.53;2.03;;;;;;;;;;5085943;27;20516;-68
2022/10/18 11:09:50;;;;;;;5.65;2.00;;;;;;;;;;5055482;28;20071;-69
2022/10/18 11:12:24;;;;;;;5.73;2.10;;;;;;;;;;5055666;28;20044;-69
2022/10/18 11:14:50;;;;;;;;;;;;;;;;;;5055734;28;20102;-70
2022/10/18 11:17:43;;;;;;;6.38;2.10;;;;;;;;;;5054443;28;20016;-71
2022/10/18 11:20:22;;;;;;;6.18;2.20;;;;;;;;;;5082453;27;20044;-70
2022/10/18 11:22:51;;;;;;;6.28;2.20;;;;;;;;;;5053603;28;20665;-69
2022/10/18 11:25:19;;;;;;;11.20;2.25;;;;;;;;;;5087476;27;20040;-69
2022/10/18 11:27:54;;;;;;;7.22;2.15;;;;;;;;;;5056465;28;20041;-69
2022/10/18 11:30:39;;;;;;;5.65;1.77;;;;;;;;;;5053590;28;20041;-69
2022/10/18 11:33:15;;;;;;;6.50;2.35;;;;;;;;;;5054053;28;20060;-69
2022/10/18 11:35:47;;;;;;;5.30;2.00;;;;;;;;;;5053331;28;20040;-69
2022/10/18 11:38:20;;;;;;;7.38;2.42;;;;;;;;;;5056162;28;20100;-68
2022/10/18 11:40:53;;;;;;;7.82;2.38;;;;;;;;;;5052206;28;20178;-69
2022/10/18 11:43:30;;;;;;;8.63;2.45;;;;;;;;;;5051907;28;20044;-69
2022/10/18 11:45:56;;;;;;;6.55;2.40;;;;;;;;;;5055115;28;20037;-69
2022/10/18 11:48:26;;;;;;;6.63;2.20;;;;;;;;;;5061014;28;20130;-68
2022/10/18 11:51:01;;;;;;;5.05;2.20;;;;;;;;;;5051355;28;20181;-69
2022/10/18 11:53:41;;;;;;;4.60;1.95;;;;;;;;;;5053342;28;20501;-69
2022/10/18 11:56:25;;;;;;;4.28;1.60;;;;;;;;;;5056158;28;20036;-68
2022/10/18 11:58:55;;;;;;;7.97;2.30;;;;;;;;;;5053472;28;20223;-68
2022/10/18 12:01:47;;;;;;;4.20;2.08;;;;;;;;;;5060287;28;20541;-70
2022/10/18 12:04:16;;;;;;;6.95;2.53;;;;;;;;;;5049465;28;20405;-69
2022/10/18 12:06:44;;;;;;;6.22;2.47;;;;;;;;;;5051844;28;20385;-70
2022/10/18 12:09:17;;;;;;;8.68;2.65;;;;;;;;;;5053999;28;20090;-69
2022/10/18 12:11:50;;;;;;;6.28;2.67;;;;;;;;;;5051495;28;20388;-71
2022/10/18 12:14:25;;;;;;;9.77;2.78;;;;;;;;;;5054365;28;20051;-71
2022/10/18 12:16:53;;;;;;;6.97;2.78;;;;;;;;;;5044308;28;20123;-70
2022/10/18 12:19:25;;;;;;;11.10;3.15;;;;;;;;;;5050492;28;20052;-70
2022/10/18 12:21:51;;;;;;;7.47;2.50;;;;;;;;;;5052916;28;20043;-69
2022/10/18 12:24:22;;;;;;;9.18;2.40;;;;;;;;;;5050513;28;20056;-69
2022/10/18 12:26:51;;;;;;;11.43;3.58;;;;;;;;;;5052096;28;20040;-69
2022/10/18 12:29:40;;;;;;;6.80;2.63;;;;;;;;;;5052974;28;20511;-69
2022/10/18 12:32:16;;;;;;;9.25;2.85;;;;;;;;;;5040573;28;20051;-69
2022/10/18 12:35:08;;;;;;;11.05;3.20;;;;;;;;;;5053228;28;20087;-67
2022/10/18 12:37:50;;;;;;;9.10;3.17;;;;;;;;;;5048808;28;20088;-70
2022/10/18 12:40:33;;;;;;;14.43;3.33;;;;;;;;;;5086073;28;20064;-69
2022/10/18 12:42:59;;;;;;;7.55;2.75;;;;;;;;;;5052694;28;20048;-70
2022/10/18 12:45:34;;;;;;;8.80;2.92;;;;;;;;;;5051888;28;20040;-69
2022/10/18 12:48:01;;;;;;;9.20;2.97;;;;;;;;;;5054911;28;20043;-68
2022/10/18 12:50:39;;;;;;;14.75;3.50;;;;;;;;;;5051606;28;20041;-71
2022/10/18 12:53:05;;;;;;;8.40;3.35;;;;;;;;;;5052580;28;20420;-68
2022/10/18 12:55:35;;;;;;;6.25;2.97;;;;;;;;;;5051367;28;20075;-68
2022/10/18 12:58:04;;;;;;;15.65;2.72;;;;;;;;;;5053436;28;20037;-68
2022/10/18 13:00:30;;;;;;;5.65;2.70;;;;;;;;;;5050881;28;20458;-69
2022/10/18 13:03:10;;;;;;;5.78;2.58;;;;;;;;;;5051147;28;20045;-68
2022/10/18 13:05:49;;;;;;;15.60;2.88;;;;;;;;;;5049907;28;20037;-68
2022/10/18 13:08:37;;;;;;;7.53;2.55;;;;;;;;;;5052617;28;20049;-68
2022/10/18 13:11:10;;;;;;;7.45;3.00;;;;;;;;;;5045394;28;20048;-69
2022/10/18 13:13:36;;;;;;;12.23;3.28;;;;;;;;;;5072572;27;20094;-67
2022/10/18 13:16:30;;;;;;;7.45;2.90;;;;;;;;;;5052300;27;20056;-69
2022/10/18 13:19:08;;;;;;;11.88;3.40;;;;;;;;;;5050959;28;20107;-67
2022/10/18 13:21:48;;;;;;;15.27;3.20;;;;;;;;;;5063376;28;20041;-67
2022/10/18 13:24:33;;;;;;;8.77;2.95;;;;;;;;;;5055776;27;20187;-67
2022/10/18 13:26:59;;;;;;;6.40;2.83;;;;;;;;;;5055327;28;20037;-69
2022/10/18 13:29:33;;;;;;;12.15;2.95;;;;;;;;;;5055344;28;20093;-68
2022/10/18 13:32:07;;;;;;;6.68;2.55;;;;;;;;;;5057650;27;20493;-68
2022/10/18 13:34:37;;;;;;;5.50;2.55;;;;;;;;;;5063218;27;20879;-69
2022/10/18 13:37:04;;;;;;;9.05;2.55;;;;;;;;;;5067750;27;20037;-68
2022/10/18 13:39:31;;;;;;;8.20;2.60;;;;;;;;;;5054031;28;20094;-68
2022/10/18 13:41:59;;;;;;;11.27;2.50;;;;;;;;;;5069821;28;20036;-66
2022/10/18 13:44:36;;;;;;;10.00;3.03;;;;;;;;;;5053773;28;20032;-68
2022/10/18 13:47:04;;;;;;;9.68;2.67;;;;;;;;;;5055410;27;20052;-68
2022/10/18 13:49:40;;;;;;;9.35;3.05;;;;;;;;;;5056484;27;20033;-68
2022/10/18 13:52:25;;;;;;;7.78;2.80;;;;;;;;;;5053002;28;20044;-68
2022/10/18 13:55:09;;;;;;;7.88;2.97;;;;;;;;;;5052943;28;20109;-69
2022/10/18 13:57:36;;;;;;;12.45;2.95;;;;;;;;;;5070795;28;20671;-69
2022/10/18 14:00:03;;;;;;;11.40;3.03;;;;;;;;;;5054243;27;21874;-69
2022/10/18 14:02:48;;;;;;;12.13;3.08;;;;;;;;;;5053342;27;20568;-69
2022/10/18 14:05:14;;;;;;;9.40;2.70;;;;;;;;;;5054710;28;20097;-70
2022/10/18 14:07:42;;;;;;;7.07;2.92;;;;;;;;;;5055844;28;20426;-71
2022/10/18 14:10:11;;;;;;;7.47;2.90;;;;;;;;;;5056139;27;22056;-69
2022/10/18 14:12:41;;;;;;;7.28;2.40;;;;;;;;;;5054451;27;20104;-70
2022/10/18 14:15:08;;;;;;;8.63;2.72;;;;;;;;;;5054179;28;20090;-69
2022/10/18 14:17:47;;;;;;;7.18;3.03;;;;;;;;;;5055805;27;20028;-69
2022/10/18 14:20:17;;;;;;;12.30;2.70;;;;;;;;;;5056052;27;20079;-69
2022/10/18 14:22:47;;;;;;;13.20;3.60;;;;;;;;;;5071099;27;20049;-69
2022/10/18 14:25:34;;;;;;;8.02;2.63;;;;;;;;;;5056557;28;20572;-69
2022/10/18 14:28:04;;;;;;;13.75;3.20;;;;;;;;;;5060814;27;20086;-70
2022/10/18 14:30:30;;;;;;;17.98;3.20;;;;;;;;;;5054930;27;20044;-71
2022/10/18 14:32:58;;;;;;;15.55;3.20;;;;;;;;;;5054596;28;20045;-70
2022/10/18 14:35:30;;;;;;;12.63;3.45;;;;;;;;;;5038012;28;20124;-69
2022/10/18 14:37:57;;;;;;;16.98;3.10;;;;;;;;;;5053901;28;20041;-69
2022/10/18 14:40:28;;;;;;;21.58;3.97;;;;;;;;;;5053707;28;20044;-69
2022/10/18 14:42:54;;;;;;;18.13;3.90;;;;;;;;;;5056758;28;20165;-69
2022/10/18 14:45:22;;;;;;;22.35;3.55;;;;;;;;;;5061222;27;20588;-69
2022/10/18 14:47:49;;;;;;;23.63;3.55;;;;;;;;;;5070103;27;20967;-68
2022/10/18 14:50:23;;;;;;;11.93;3.50;;;;;;;;;;5054064;27;20033;-69
2022/10/18 14:52:50;;;;;;;16.48;3.55;;;;;;;;;;5053151;28;20040;-68
2022/10/18 14:55:23;;;;;;;11.40;3.60;;;;;;;;;;5056295;27;20038;-70
2022/10/18 14:57:49;;;;;;;12.30;2.90;;;;;;;;;;5053146;28;20037;-69
2022/10/18 15:00:20;;;;;;;12.15;3.42;;;;;;;;;;5055291;28;20151;-69
2022/10/18 15:02:47;;;;;;;9.30;2.90;;;;;;;;;;5057036;28;20687;-69
2022/10/18 15:05:18;;;;;;;13.02;3.33;;;;;;;;;;5056377;28;20037;-71
2022/10/18 15:07:45;;;;;;;19.35;3.60;;;;;;;;;;5056124;28;20119;-71